Time;durP1;ratioP1;P1;durP2;ratioP2;P2;SDS_P1;SDS_P2;PMS_P1;PMS_P2;Temp;Humidity;BMP_temperature;BMP_pressure;BME280_temperature;BME280_humidity;BME280_pressure;Samples;Min_cycle;Max_cycle;Signal;HPM_P1;HPM_P2
2023/07/05 00:00:47;;;;;;;24.83;6.00;;;27.40;45.90;;;;;;5032893;28;20208;-65
2023/07/05 00:03:14;;;;;;;39.43;7.03;;;27.40;45.90;;;;;;5025125;28;20192;-65
2023/07/05 00:05:43;;;;;;;31.03;6.47;;;27.40;45.90;;;;;;5035070;28;20196;-64
2023/07/05 00:08:09;;;;;;;30.43;6.73;;;27.40;46.00;;;;;;5016346;28;20233;-66
2023/07/05 00:10:36;;;;;;;27.13;5.57;;;27.40;46.00;;;;;;5018798;28;20204;-66
2023/07/05 00:13:04;;;;;;;54.27;7.87;;;27.40;46.60;;;;;;5037641;28;20330;-65
2023/07/05 00:15:31;;;;;;;39.30;7.20;;;27.40;46.00;;;;;;5025585;28;20200;-66
2023/07/05 00:17:59;;;;;;;37.80;7.00;;;27.40;46.00;;;;;;5007034;28;20211;-65
2023/07/05 00:20:26;;;;;;;32.03;6.63;;;27.40;46.00;;;;;;5036169;28;20204;-66
2023/07/05 00:22:54;;;;;;;29.70;5.93;;;27.40;46.10;;;;;;5012137;28;20193;-65
2023/07/05 00:25:21;;;;;;;26.03;5.80;;;27.40;46.00;;;;;;5016232;28;20205;-65
2023/07/05 00:27:48;;;;;;;41.43;7.20;;;27.40;46.10;;;;;;5008706;28;20240;-66
2023/07/05 00:30:16;;;;;;;35.03;6.70;;;27.40;46.00;;;;;;5021232;28;21055;-65
2023/07/05 00:32:43;;;;;;;26.87;6.13;;;27.40;46.10;;;;;;5036616;28;20242;-65
2023/07/05 00:35:10;;;;;;;27.83;6.43;;;27.30;46.00;;;;;;5030943;28;20676;-65
2023/07/05 00:37:36;;;;;;;45.23;7.67;;;27.40;46.00;;;;;;5024249;28;20219;-66
2023/07/05 00:40:07;;;;;;;34.60;6.73;;;27.30;46.20;;;;;;5007535;28;20228;-65
2023/07/05 00:42:34;;;;;;;28.87;6.10;;;27.30;46.00;;;;;;5006890;28;20194;-65
2023/07/05 00:45:34;;;;;;;27.43;6.10;;;27.30;46.00;;;;;;5013317;28;20617;-66
2023/07/05 00:48:01;;;;;;;24.17;5.67;;;27.30;46.00;;;;;;5011173;28;20233;-65
2023/07/05 00:50:36;;;;;;;26.07;5.87;;;27.30;46.00;;;;;;5013099;28;20853;-65
2023/07/05 00:53:05;;;;;;;23.10;5.77;;;27.30;46.10;;;;;;5034147;28;20203;-65
2023/07/05 00:55:33;;;;;;;25.73;5.83;;;27.30;46.00;;;;;;5015221;28;20211;-67
2023/07/05 00:58:02;;;;;;;25.47;5.93;;;27.30;46.10;;;;;;5043862;28;20208;-65
2023/07/05 01:00:31;;;;;;;31.30;6.40;;;27.30;46.00;;;;;;5045781;28;20211;-66
2023/07/05 01:03:04;;;;;;;43.50;7.37;;;27.30;46.10;;;;;;5037940;28;20215;-66
2023/07/05 01:05:31;;;;;;;23.57;5.67;;;27.30;46.20;;;;;;5019533;28;20196;-66
2023/07/05 01:07:58;;;;;;;27.73;6.03;;;27.30;46.20;;;;;;5027338;28;20245;-65
2023/07/05 01:10:26;;;;;;;31.87;7.03;;;27.20;46.10;;;;;;5021445;28;20205;-65
2023/07/05 01:13:02;;;;;;;30.43;6.50;;;27.20;46.70;;;;;;5019616;28;20208;-69
2023/07/05 01:15:35;;;;;;;31.50;6.57;;;27.20;46.20;;;;;;5010768;28;20199;-64
2023/07/05 01:18:08;;;;;;;26.67;6.23;;;27.20;46.10;;;;;;5010883;28;20237;-66
2023/07/05 01:20:42;;;;;;;28.40;5.63;;;27.20;46.10;;;;;;5022450;28;20256;-66
2023/07/05 01:23:37;;;;;;;29.90;6.13;;;27.20;46.20;;;;;;5012627;28;20217;-65
2023/07/05 01:26:44;;;;;;;28.80;6.30;;;27.20;46.20;;;;;;5018801;28;20194;-65
2023/07/05 01:29:55;;;;;;;26.83;6.03;;;27.20;46.20;;;;;;4987314;28;20237;-69
2023/07/05 01:32:29;;;;;;;25.50;5.80;;;27.20;46.20;;;;;;5011323;28;20205;-70
2023/07/05 01:35:03;;;;;;;25.53;5.53;;;27.20;46.20;;;;;;5026749;28;20204;-64
2023/07/05 01:37:35;;;;;;;30.77;6.30;;;27.10;46.20;;;;;;5017680;28;20225;-68
2023/07/05 01:40:13;;;;;;;23.40;5.90;;;27.10;46.20;;;;;;5011798;28;20205;-65
2023/07/05 01:42:41;;;;;;;38.07;7.10;;;27.10;46.30;;;;;;5010472;28;20651;-68
2023/07/05 01:45:09;;;;;;;26.47;6.27;;;27.10;46.20;;;;;;5018837;28;20193;-67
2023/07/05 01:47:45;;;;;;;47.43;8.17;;;27.10;46.20;;;;;;5022703;28;20231;-65
2023/07/05 01:50:21;;;;;;;26.27;5.60;;;27.10;46.30;;;;;;5043087;28;20215;-69
2023/07/05 01:52:55;;;;;;;28.17;6.43;;;27.10;46.30;;;;;;5024838;28;20248;-65
2023/07/05 01:55:26;;;;;;;25.57;6.00;;;27.00;46.30;;;;;;5019601;28;20208;-69
2023/07/05 01:57:57;;;;;;;26.63;5.97;;;27.00;46.30;;;;;;5045461;28;20212;-65
2023/07/05 02:00:26;;;;;;;25.53;5.87;;;27.00;46.30;;;;;;5049793;28;20204;-65
2023/07/05 02:02:58;;;;;;;24.47;6.13;;;27.00;46.30;;;;;;5027448;28;20205;-69
2023/07/05 02:05:27;;;;;;;28.13;6.60;;;27.00;46.40;;;;;;5019518;28;20201;-67
2023/07/05 02:07:55;;;;;;;42.60;7.83;;;27.00;46.40;;;;;;5018253;28;20596;-64
2023/07/05 02:10:23;;;;;;;26.30;6.00;;;27.00;46.40;;;;;;5020370;28;20220;-65
2023/07/05 02:12:52;;;;;;;26.03;6.03;;;27.00;46.40;;;;;;5018094;28;20213;-65
2023/07/05 02:15:19;;;;;;;28.43;6.23;;;27.00;46.40;;;;;;5018136;28;20197;-65
2023/07/05 02:17:45;;;;;;;30.17;6.67;;;27.00;46.40;;;;;;5010480;28;20212;-65
2023/07/05 02:20:14;;;;;;;24.33;6.00;;;26.90;46.30;;;;;;5019900;28;20618;-65
2023/07/05 02:22:41;;;;;;;29.33;6.73;;;26.90;47.00;;;;;;5010526;28;20225;-65
2023/07/05 02:25:08;;;;;;;37.53;7.33;;;26.90;46.30;;;;;;5012865;28;20339;-66
2023/07/05 02:27:36;;;;;;;33.80;6.33;;;26.90;46.30;;;;;;5039577;28;20236;-71
2023/07/05 02:30:03;;;;;;;29.03;6.20;;;26.90;46.40;;;;;;5030075;28;20206;-65
2023/07/05 02:32:30;;;;;;;25.83;5.90;;;26.90;46.40;;;;;;5014143;28;20212;-65
2023/07/05 02:35:00;;;;;;;31.73;6.37;;;26.90;46.40;;;;;;5030965;28;20207;-64
2023/07/05 02:37:28;;;;;;;29.13;6.70;;;26.90;46.40;;;;;;5026788;28;20275;-66
2023/07/05 02:39:55;;;;;;;59.87;8.87;;;26.90;46.40;;;;;;5016450;28;20208;-65
2023/07/05 02:42:22;;;;;;;24.77;6.00;;;26.90;46.40;;;;;;5018963;28;20216;-70
2023/07/05 02:44:50;;;;;;;30.03;6.27;;;26.90;46.50;;;;;;5020539;28;20206;-69
2023/07/05 02:47:18;;;;;;;35.07;7.23;;;26.90;46.50;;;;;;5027201;28;20201;-65
2023/07/05 02:49:45;;;;;;;26.93;6.33;;;26.80;46.40;;;;;;5009764;28;20224;-65
2023/07/05 02:52:12;;;;;;;24.97;6.20;;;26.80;46.70;;;;;;5014547;28;20205;-70
2023/07/05 02:54:40;;;;;;;29.17;6.23;;;26.80;46.50;;;;;;5009774;28;20639;-65
2023/07/05 02:57:07;;;;;;;34.67;6.80;;;26.80;46.50;;;;;;5010386;28;20216;-64
2023/07/05 02:59:35;;;;;;;18.23;5.40;;;26.80;46.50;;;;;;5026133;28;20200;-64
2023/07/05 03:02:02;;;;;;;30.67;7.00;;;26.80;46.50;;;;;;5029697;28;20284;-65
2023/07/05 03:04:29;;;;;;;59.17;9.07;;;26.80;46.50;;;;;;5041747;28;20196;-66
2023/07/05 03:06:56;;;;;;;31.87;6.27;;;26.80;46.50;;;;;;5045056;28;20642;-65
2023/07/05 03:09:23;;;;;;;25.53;6.47;;;26.80;46.50;;;;;;5042833;28;20238;-67
2023/07/05 03:11:51;;;;;;;35.30;7.27;;;26.80;46.60;;;;;;5027546;28;20205;-65
2023/07/05 03:14:18;;;;;;;20.37;5.67;;;26.80;46.60;;;;;;5018333;28;20202;-65
2023/07/05 03:16:45;;;;;;;24.83;6.27;;;26.80;46.60;;;;;;5023169;28;20196;-64
2023/07/05 03:19:12;;;;;;;60.53;9.63;;;26.70;46.60;;;;;;5018256;28;20658;-64
2023/07/05 03:21:39;;;;;;;37.23;7.10;;;26.70;46.60;;;;;;5023418;28;20681;-65
2023/07/05 03:24:06;;;;;;;35.83;7.00;;;26.70;46.60;;;;;;5018975;28;20217;-64
2023/07/05 03:26:33;;;;;;;24.50;6.70;;;26.70;46.60;;;;;;5013664;28;20935;-64
2023/07/05 03:29:03;;;;;;;28.93;6.63;;;26.70;46.70;;;;;;5048982;28;20273;-65
2023/07/05 03:31:30;;;;;;;35.93;7.00;;;26.70;46.60;;;;;;5031746;28;20197;-67
2023/07/05 03:33:56;;;;;;;37.23;7.37;;;26.70;46.60;;;;;;5048209;28;20286;-65
2023/07/05 03:36:23;;;;;;;30.43;6.63;;;26.70;46.70;;;;;;5048540;28;20215;-66
2023/07/05 03:38:51;;;;;;;41.00;7.40;;;26.70;47.30;;;;;;5043335;28;20686;-65
2023/07/05 03:41:20;;;;;;;46.37;7.83;;;26.70;46.70;;;;;;5034747;28;20204;-66
2023/07/05 03:43:54;;;;;;;37.33;6.77;;;26.60;46.60;;;;;;5043763;28;20211;-65
2023/07/05 03:46:23;;;;;;;22.33;6.13;;;26.60;46.60;;;;;;5036051;28;20579;-65
2023/07/05 03:48:51;;;;;;;20.70;5.53;;;26.70;46.70;;;;;;5040867;28;20228;-65
2023/07/05 03:51:20;;;;;;;35.77;6.97;;;26.70;46.70;;;;;;5022706;28;20200;-65
2023/07/05 03:53:49;;;;;;;46.47;8.20;;;26.70;46.70;;;;;;5027002;28;20556;-66
2023/07/05 03:56:16;;;;;;;31.20;6.53;;;26.60;46.70;;;;;;5035286;28;20226;-68
2023/07/05 03:58:44;;;;;;;31.13;6.33;;;26.60;46.80;;;;;;5043319;28;20206;-68
2023/07/05 04:01:14;;;;;;;27.37;6.13;;;26.60;46.70;;;;;;5036541;28;20208;-65
2023/07/05 04:03:42;;;;;;;25.93;5.83;;;26.60;46.70;;;;;;5027769;28;20212;-65
2023/07/05 04:06:09;;;;;;;28.00;6.13;;;26.60;46.80;;;;;;5025998;28;20668;-64
2023/07/05 04:08:36;;;;;;;28.83;6.27;;;26.60;47.40;;;;;;5030809;28;20224;-67
2023/07/05 04:11:03;;;;;;;21.57;6.03;;;26.60;46.80;;;;;;5037561;28;20209;-69
2023/07/05 04:13:30;;;;;;;20.77;5.57;;;26.60;46.80;;;;;;5029371;28;20201;-68
2023/07/05 04:16:01;;;;;;;28.50;6.53;;;26.60;46.80;;;;;;5030205;28;20197;-65
2023/07/05 04:18:28;;;;;;;21.73;5.80;;;26.60;46.90;;;;;;5027688;28;20204;-66
2023/07/05 04:20:57;;;;;;;26.33;6.60;;;26.60;46.90;;;;;;5025207;28;20216;-65
2023/07/05 04:23:24;;;;;;;30.50;6.43;;;26.60;46.90;;;;;;5031501;28;20200;-64
2023/07/05 04:25:59;;;;;;;40.70;7.50;;;26.60;46.90;;;;;;5041957;28;20204;-65
2023/07/05 04:28:26;;;;;;;22.40;5.90;;;26.60;47.00;;;;;;5020224;28;20338;-64
2023/07/05 04:30:52;;;;;;;51.20;8.43;;;26.60;46.90;;;;;;5011606;28;20206;-65
2023/07/05 04:33:19;;;;;;;26.30;6.33;;;26.60;46.90;;;;;;5025008;28;20567;-65
2023/07/05 04:35:46;;;;;;;12.83;4.93;;;26.60;47.00;;;;;;5020638;28;20209;-67
2023/07/05 04:38:15;;;;;;;21.20;5.47;;;26.60;47.00;;;;;;5018628;28;20661;-65
2023/07/05 04:40:42;;;;;;;30.73;6.40;;;26.60;47.00;;;;;;5015265;28;20571;-67
2023/07/05 04:43:09;;;;;;;31.43;6.73;;;26.60;47.00;;;;;;5021069;28;20201;-66
2023/07/05 04:45:36;;;;;;;47.47;8.23;;;26.60;47.00;;;;;;5017608;28;20662;-66
2023/07/05 04:48:03;;;;;;;26.43;6.20;;;26.60;47.00;;;;;;5017493;28;20216;-64
2023/07/05 04:50:30;;;;;;;27.97;6.53;;;26.60;47.00;;;;;;5015102;28;20201;-66
2023/07/05 04:52:57;;;;;;;29.50;6.40;;;26.60;47.10;;;;;;5014291;28;20237;-65
2023/07/05 04:55:25;;;;;;;26.77;6.13;;;26.60;47.10;;;;;;5009003;28;20697;-69
2023/07/05 04:57:52;;;;;;;44.37;7.43;;;26.60;47.10;;;;;;5022168;28;20662;-67
2023/07/05 05:00:20;;;;;;;38.63;6.83;;;26.50;47.00;;;;;;5029929;28;20192;-66
2023/07/05 05:02:47;;;;;;;51.77;8.23;;;26.60;47.10;;;;;;5035691;28;20211;-73
2023/07/05 05:05:13;;;;;;;29.83;6.03;;;26.50;47.00;;;;;;5049277;28;20199;-71
2023/07/05 05:07:41;;;;;;;40.40;7.43;;;26.50;47.10;;;;;;5041872;28;20215;-74
2023/07/05 05:10:08;;;;;;;25.33;5.80;;;26.50;47.00;;;;;;5031862;28;20644;-70
2023/07/05 05:12:37;;;;;;;24.57;5.67;;;26.50;47.10;;;;;;5028086;28;20208;-67
2023/07/05 05:15:04;;;;;;;65.80;9.90;;;26.50;47.00;;;;;;5025182;28;20324;-68
2023/07/05 05:17:31;;;;;;;24.67;5.93;;;26.50;47.00;;;;;;5039121;28;20197;-66
2023/07/05 05:19:58;;;;;;;34.10;7.03;;;26.50;47.10;;;;;;5020066;28;20214;-65
2023/07/05 05:22:25;;;;;;;48.63;8.50;;;26.50;47.00;;;;;;5022509;28;20207;-65
2023/07/05 05:24:52;;;;;;;28.63;6.17;;;26.60;47.10;;;;;;5043169;28;20749;-64
2023/07/05 05:27:19;;;;;;;30.60;6.47;;;26.60;47.20;;;;;;5021575;28;20230;-66
2023/07/05 05:29:47;;;;;;;31.03;6.10;;;26.50;47.20;;;;;;5011669;28;20225;-65
2023/07/05 05:32:14;;;;;;;38.80;6.77;;;26.50;47.10;;;;;;5011595;28;20201;-65
2023/07/05 05:34:41;;;;;;;26.07;5.90;;;26.50;47.10;;;;;;5044852;28;20200;-66
2023/07/05 05:37:07;;;;;;;36.37;6.77;;;26.50;47.30;;;;;;5034088;28;20219;-64
2023/07/05 05:39:34;;;;;;;35.00;6.90;;;26.50;47.30;;;;;;5012582;28;20209;-64
2023/07/05 05:42:02;;;;;;;31.70;6.40;;;26.50;47.20;;;;;;5014300;28;20204;-64
2023/07/05 05:44:28;;;;;;;29.40;6.13;;;26.50;47.20;;;;;;5036341;28;20840;-63
2023/07/05 05:46:57;;;;;;;28.63;6.17;;;26.50;47.20;;;;;;5042155;28;20649;-67
2023/07/05 05:49:23;;;;;;;29.23;6.17;;;26.50;47.20;;;;;;5031564;28;20233;-68
2023/07/05 05:51:50;;;;;;;35.67;6.53;;;26.50;47.20;;;;;;5030003;28;20211;-65
2023/07/05 05:54:17;;;;;;;30.17;6.33;;;26.50;47.20;;;;;;5025589;28;20203;-67
2023/07/05 05:56:44;;;;;;;33.40;6.87;;;26.50;47.30;;;;;;5037308;28;20204;-64
2023/07/05 05:59:11;;;;;;;25.03;5.80;;;26.50;47.40;;;;;;5030406;28;20241;-67
2023/07/05 06:01:38;;;;;;;49.77;8.00;;;26.50;47.30;;;;;;5011561;28;20201;-67
2023/07/05 06:04:06;;;;;;;33.73;6.27;;;26.40;47.30;;;;;;5019317;28;20205;-65
2023/07/05 06:06:33;;;;;;;27.77;6.07;;;26.40;47.30;;;;;;5051011;28;20191;-63
2023/07/05 06:09:00;;;;;;;31.50;6.43;;;26.40;47.30;;;;;;5023558;28;20243;-64
2023/07/05 06:11:26;;;;;;;29.27;5.73;;;26.40;47.30;;;;;;5027201;28;20197;-71
2023/07/05 06:13:53;;;;;;;62.20;8.93;;;26.40;47.20;;;;;;5015830;28;20205;-67
2023/07/05 06:16:20;;;;;;;43.33;7.73;;;26.50;47.30;;;;;;5009393;28;20752;-68
2023/07/05 06:18:47;;;;;;;31.77;6.27;;;26.40;47.20;;;;;;5009289;28;20216;-66
2023/07/05 06:21:15;;;;;;;32.27;5.97;;;26.40;47.30;;;;;;5015064;28;20207;-66
2023/07/05 06:23:42;;;;;;;26.23;6.13;;;26.40;47.30;;;;;;5024327;28;20939;-66
2023/07/05 06:26:10;;;;;;;30.53;6.37;;;26.40;47.20;;;;;;5014465;28;20205;-66
2023/07/05 06:28:37;;;;;;;48.00;8.00;;;26.50;47.30;;;;;;5025149;28;20204;-66
2023/07/05 06:31:08;;;;;;;34.93;6.73;;;26.40;47.30;;;;;;5019868;28;20200;-71
2023/07/05 06:33:35;;;;;;;29.13;6.07;;;26.40;47.30;;;;;;5008641;28;20205;-66
2023/07/05 06:36:01;;;;;;;31.53;6.30;;;26.40;47.30;;;;;;5026161;28;20582;-66
2023/07/05 06:38:30;;;;;;;31.40;6.47;;;26.40;47.30;;;;;;5049584;28;20549;-64
2023/07/05 06:40:57;;;;;;;39.00;6.83;;;26.40;47.30;;;;;;5019804;28;20212;-66
2023/07/05 06:43:25;;;;;;;46.00;7.80;;;26.40;47.50;;;;;;5032830;28;20211;-65
2023/07/05 06:45:53;;;;;;;58.77;8.60;;;26.40;47.40;;;;;;5024947;28;20211;-65
2023/07/05 06:48:21;;;;;;;29.03;6.13;;;26.40;47.40;;;;;;5026833;28;20243;-65
2023/07/05 06:50:50;;;;;;;23.90;5.40;;;26.40;47.50;;;;;;5031588;28;20239;-65
2023/07/05 06:53:17;;;;;;;53.53;8.33;;;26.40;47.50;;;;;;5036214;28;20201;-66
2023/07/05 06:55:48;;;;;;;45.77;7.97;;;26.40;47.50;;;;;;5028320;28;20205;-66
2023/07/05 06:58:15;;;;;;;22.60;5.57;;;26.40;47.50;;;;;;5018878;28;20205;-65
2023/07/05 07:00:43;;;;;;;31.73;6.33;;;26.40;47.50;;;;;;5028991;28;20205;-65
2023/07/05 07:03:10;;;;;;;28.20;6.10;;;26.40;47.50;;;;;;5029458;28;20201;-66
2023/07/05 07:05:36;;;;;;;32.47;6.40;;;26.40;47.50;;;;;;5029531;28;20205;-66
2023/07/05 07:08:04;;;;;;;29.83;6.20;;;26.50;47.60;;;;;;5028366;28;20207;-66
2023/07/05 07:10:31;;;;;;;26.13;5.93;;;26.50;47.60;;;;;;5022923;28;20224;-68
2023/07/05 07:12:59;;;;;;;30.37;6.53;;;26.50;47.60;;;;;;5008535;28;20206;-65
2023/07/05 07:15:26;;;;;;;26.23;5.67;;;26.50;47.60;;;;;;5023382;28;20661;-66
2023/07/05 07:17:53;;;;;;;29.80;6.20;;;26.50;47.60;;;;;;5020668;28;20741;-67
2023/07/05 07:20:20;;;;;;;31.23;5.90;;;26.50;47.60;;;;;;5008697;28;20213;-65
2023/07/05 07:22:47;;;;;;;42.37;7.27;;;26.50;47.60;;;;;;5025770;28;20262;-66
2023/07/05 07:25:13;;;;;;;34.30;6.57;;;26.50;47.60;;;;;;5021540;28;20208;-67
2023/07/05 07:27:40;;;;;;;43.17;7.03;;;26.50;47.60;;;;;;5012541;28;20676;-66
2023/07/05 07:30:10;;;;;;;37.00;6.47;;;26.50;47.60;;;;;;5008329;28;20226;-66
2023/07/05 07:32:37;;;;;;;45.77;7.73;;;26.50;47.60;;;;;;5008650;28;20205;-66
2023/07/05 07:35:04;;;;;;;27.70;6.07;;;26.50;47.60;;;;;;5028628;28;20207;-68
2023/07/05 07:37:32;;;;;;;29.77;6.20;;;26.50;47.60;;;;;;5027594;28;20236;-66
2023/07/05 07:39:59;;;;;;;40.63;6.80;;;26.50;47.60;;;;;;5021042;28;20752;-66
2023/07/05 07:42:26;;;;;;;28.27;5.97;;;26.50;47.60;;;;;;5008745;28;20208;-66
2023/07/05 07:44:55;;;;;;;31.57;6.47;;;26.60;47.70;;;;;;5022173;28;20204;-71
2023/07/05 07:47:23;;;;;;;26.43;5.80;;;26.60;47.70;;;;;;5022824;28;20205;-71
2023/07/05 07:49:51;;;;;;;27.30;5.60;;;26.60;47.70;;;;;;5015842;28;20223;-74
2023/07/05 07:52:19;;;;;;;24.30;5.70;;;26.60;47.70;;;;;;5008211;28;20209;-69
2023/07/05 07:54:46;;;;;;;25.93;5.57;;;26.60;47.70;;;;;;5022903;28;20213;-69
2023/07/05 07:57:13;;;;;;;48.03;7.80;;;26.60;47.70;;;;;;5010776;28;20324;-70
2023/07/05 07:59:41;;;;;;;29.97;5.73;;;26.60;47.70;;;;;;5021736;28;20198;-73
2023/07/05 08:02:12;;;;;;;27.27;5.60;;;26.70;47.80;;;;;;5007838;28;20212;-68
2023/07/05 08:04:45;;;;;;;21.00;5.83;;;26.70;47.90;;;;;;5008592;28;20209;-66
2023/07/05 08:07:13;;;;;;;22.17;5.40;;;26.70;47.80;;;;;;5008320;28;20204;-66
2023/07/05 08:09:40;;;;;;;40.63;6.83;;;26.70;47.90;;;;;;5008801;28;20224;-66
2023/07/05 08:12:08;;;;;;;24.03;5.07;;;26.70;47.80;;;;;;5008737;28;20197;-66
2023/07/05 08:14:35;;;;;;;38.20;7.13;;;26.80;47.90;;;;;;5007872;28;20699;-69
2023/07/05 08:17:02;;;;;;;21.90;5.43;;;26.80;47.90;;;;;;5008093;28;20218;-67
2023/07/05 08:19:29;;;;;;;43.60;7.13;;;26.80;47.90;;;;;;5024632;28;20335;-71
2023/07/05 08:21:57;;;;;;;28.80;5.63;;;26.80;47.90;;;;;;5021362;28;20196;-69
2023/07/05 08:24:24;;;;;;;32.90;6.30;;;26.80;47.90;;;;;;5024771;28;20236;-66
2023/07/05 08:26:51;;;;;;;48.10;7.77;;;26.80;47.90;;;;;;5011297;28;20596;-65
2023/07/05 08:29:18;;;;;;;27.73;5.87;;;26.80;47.90;;;;;;5028546;28;20219;-65
2023/07/05 08:31:46;;;;;;;39.47;7.03;;;26.90;47.90;;;;;;5024081;28;20223;-65
2023/07/05 08:34:13;;;;;;;36.00;6.27;;;26.90;47.90;;;;;;5010587;28;20230;-66
2023/07/05 08:36:42;;;;;;;23.57;5.23;;;26.90;47.90;;;;;;5007629;28;20213;-67
2023/07/05 08:39:12;;;;;;;26.93;5.67;;;26.90;47.90;;;;;;5007440;28;20216;-69
2023/07/05 08:42:01;;;;;;;31.30;6.30;;;26.90;47.90;;;;;;5007811;28;20210;-69
2023/07/05 08:44:47;;;;;;;26.30;5.57;;;27.00;48.00;;;;;;5007568;28;20201;-66
2023/07/05 08:47:23;;;;;;;27.20;5.90;;;27.00;47.90;;;;;;5016013;28;20207;-73
2023/07/05 08:49:58;;;;;;;24.33;5.77;;;27.00;47.90;;;;;;5018258;28;20217;-67
2023/07/05 08:52:28;;;;;;;46.43;7.20;;;27.00;47.80;;;;;;5007560;28;20193;-68
2023/07/05 08:55:01;;;;;;;30.50;6.03;;;27.10;47.90;;;;;;5011481;28;20192;-70
2023/07/05 08:57:32;;;;;;;29.73;6.03;;;27.00;47.80;;;;;;5018377;28;20193;-67
2023/07/05 09:00:01;;;;;;;41.27;6.67;;;27.10;47.90;;;;;;5026671;28;20971;-68
2023/07/05 09:02:28;;;;;;;36.27;6.43;;;27.10;47.90;;;;;;5020829;28;20204;-65
2023/07/05 09:04:58;;;;;;;47.60;7.33;;;27.10;47.90;;;;;;5016385;28;20552;-65
2023/07/05 09:07:38;;;;;;;32.33;5.90;;;27.20;47.90;;;;;;5021564;28;20285;-66
2023/07/05 09:10:13;;;;;;;21.03;4.87;;;27.20;47.90;;;;;;5017641;28;20596;-67
2023/07/05 09:12:50;;;;;;;36.30;6.70;;;27.20;47.90;;;;;;5028926;28;20206;-69
2023/07/05 09:15:23;;;;;;;27.67;5.50;;;27.20;47.90;;;;;;5021851;28;20205;-67
2023/07/05 09:17:55;;;;;;;32.67;5.93;;;27.30;47.90;;;;;;5008201;28;20206;-68
2023/07/05 09:20:54;;;;;;;24.17;5.23;;;27.30;47.90;;;;;;5012964;28;20201;-70
2023/07/05 09:23:26;;;;;;;34.57;6.20;;;27.30;48.00;;;;;;5012120;28;20209;-65
2023/07/05 09:26:01;;;;;;;22.83;4.93;;;27.30;47.90;;;;;;5006224;28;20577;-66
2023/07/05 09:28:34;;;;;;;42.17;6.63;;;27.30;47.90;;;;;;5019879;28;20220;-65
2023/07/05 09:31:01;;;;;;;31.37;5.60;;;27.40;47.90;;;;;;5007573;28;20240;-65
2023/07/05 09:33:33;;;;;;;30.07;5.77;;;27.40;47.80;;;;;;5018513;28;20202;-74
2023/07/05 09:36:05;;;;;;;58.07;8.13;;;27.40;47.80;;;;;;5015727;28;20770;-75
2023/07/05 09:38:36;;;;;;;23.57;5.20;;;27.50;47.80;;;;;;5037625;28;20200;-72
2023/07/05 09:41:08;;;;;;;35.50;6.07;;;27.50;47.70;;;;;;5032841;28;20227;-70
2023/07/05 09:43:36;;;;;;;30.43;6.00;;;27.50;47.70;;;;;;5035722;28;20204;-65
2023/07/05 09:46:06;;;;;;;23.60;5.33;;;27.60;47.70;;;;;;5026490;28;20193;-72
2023/07/05 09:48:41;;;;;;;29.10;5.77;;;27.60;47.70;;;;;;5028666;28;20208;-68
2023/07/05 09:51:08;;;;;;;32.87;6.27;;;27.60;47.70;;;;;;5041477;28;20717;-72
2023/07/05 09:53:42;;;;;;;29.03;5.93;;;27.70;47.80;;;;;;5040523;28;20201;-69
2023/07/05 09:56:13;;;;;;;59.57;8.23;;;27.70;47.80;;;;;;5028141;28;20218;-66
2023/07/05 09:58:43;;;;;;;21.23;5.40;;;27.70;47.80;;;;;;5039518;28;20200;-63
2023/07/05 10:01:14;;;;;;;28.87;5.50;;;27.80;47.80;;;;;;5049670;28;20699;-63
2023/07/05 10:03:49;;;;;;;29.67;5.83;;;27.80;47.80;;;;;;5050510;28;20637;-62
2023/07/05 10:06:19;;;;;;;25.17;5.07;;;27.80;47.80;;;;;;5045293;28;20282;-63
2023/07/05 10:08:50;;;;;;;21.30;5.03;;;27.80;47.80;;;;;;5050778;28;20253;-63
2023/07/05 10:11:23;;;;;;;52.03;7.67;;;27.90;47.90;;;;;;5033595;28;20229;-63
2023/07/05 10:14:03;;;;;;;27.13;5.60;;;27.90;47.80;;;;;;5033461;28;20262;-62
2023/07/05 10:16:52;;;;;;;26.13;5.43;;;27.90;47.70;;;;;;5026914;28;20200;-70
2023/07/05 10:19:23;;;;;;;42.47;6.73;;;28.00;47.80;;;;;;5029758;28;20208;-65
2023/07/05 10:21:54;;;;;;;49.07;7.47;;;28.00;47.60;;;;;;5033061;28;20201;-68
2023/07/05 10:24:21;;;;;;;61.80;8.87;;;28.10;47.60;;;;;;5025471;28;20205;-66
2023/07/05 10:27:03;;;;;;;26.63;5.40;;;28.20;47.60;;;;;;5032456;28;20231;-67
2023/07/05 10:29:31;;;;;;;29.47;5.80;;;28.20;47.60;;;;;;5026002;28;20201;-66
2023/07/05 10:32:00;;;;;;;20.87;4.93;;;28.20;47.60;;;;;;5010494;28;20510;-66
2023/07/05 10:34:28;;;;;;;50.80;7.23;;;28.30;48.10;;;;;;5024857;28;20216;-68
2023/07/05 10:36:55;;;;;;;32.77;6.30;;;28.30;47.50;;;;;;5009581;28;20209;-65
2023/07/05 10:39:24;;;;;;;24.37;5.13;;;28.40;47.50;;;;;;5013191;28;20232;-67
2023/07/05 10:41:58;;;;;;;35.57;6.37;;;28.50;47.60;;;;;;5029284;28;20232;-68
2023/07/05 10:44:30;;;;;;;32.77;6.07;;;28.50;47.50;;;;;;5029285;28;20197;-66
2023/07/05 10:46:57;;;;;;;24.20;5.30;;;28.60;47.60;;;;;;5042634;28;20204;-67
2023/07/05 10:49:26;;;;;;;30.40;5.67;;;28.70;47.50;;;;;;5040663;28;20195;-67
2023/07/05 10:51:57;;;;;;;29.53;5.60;;;28.80;47.50;;;;;;5029924;28;20243;-69
2023/07/05 10:54:32;;;;;;;33.03;5.97;;;28.90;47.60;;;;;;5027406;28;20207;-68
2023/07/05 10:57:06;;;;;;;39.43;6.27;;;29.00;47.60;;;;;;5018595;28;20193;-66
2023/07/05 10:59:38;;;;;;;21.13;4.77;;;29.20;47.80;;;;;;5009716;28;20635;-67
2023/07/05 11:02:19;;;;;;;26.67;5.43;;;29.30;47.60;;;;;;5029076;28;20653;-72
2023/07/05 11:04:48;;;;;;;22.27;5.00;;;29.50;47.70;;;;;;5028393;28;20193;-69
2023/07/05 11:07:16;;;;;;;22.67;5.17;;;29.70;47.70;;;;;;5029840;28;20201;-67
2023/07/05 11:09:43;;;;;;;29.87;6.10;;;29.90;47.60;;;;;;5019835;28;20669;-66
2023/07/05 11:12:18;;;;;;;27.07;5.40;;;30.10;47.70;;;;;;5022368;28;20596;-66
2023/07/05 11:14:46;;;;;;;20.67;4.67;;;30.30;47.60;;;;;;5029095;28;20204;-66
2023/07/05 11:17:23;;;;;;;29.27;5.40;;;30.50;47.30;;;;;;5018587;28;20775;-74
2023/07/05 11:19:50;;;;;;;20.33;4.67;;;30.70;47.30;;;;;;5009372;28;20205;-66
2023/07/05 11:22:43;;;;;;;28.47;5.67;;;31.00;47.10;;;;;;5021273;28;20209;-66
2023/07/05 11:25:16;;;;;;;23.83;4.77;;;31.30;46.70;;;;;;5015503;28;20212;-66
2023/07/05 11:27:56;;;;;;;19.00;4.40;;;31.40;46.60;;;;;;5029417;28;20231;-66
2023/07/05 11:30:44;;;;;;;26.95;5.32;;;31.70;46.30;;;;;;5028361;28;20211;-67
2023/07/05 11:33:20;;;;;;;26.95;5.45;;;31.90;45.70;;;;;;5015321;28;20863;-66
2023/07/05 11:35:49;;;;;;;44.40;7.13;;;32.10;45.80;;;;;;5008858;28;20201;-66
2023/07/05 11:38:56;;;;;;;19.95;4.93;;;32.30;45.70;;;;;;5015558;28;20550;-67
2023/07/05 11:41:31;;;;;;;30.88;6.22;;;32.50;45.20;;;;;;5002716;28;20197;-66
2023/07/05 11:44:02;;;;;;;46.05;7.10;;;32.80;45.10;;;;;;5040107;28;20200;-66
2023/07/05 11:46:41;;;;;;;34.95;5.93;;;32.90;44.80;;;;;;5021768;28;20248;-67
2023/07/05 11:49:37;;;;;;;27.70;5.28;;;33.10;44.40;;;;;;5008668;28;20752;-68
2023/07/05 11:52:21;;;;;;;25.58;5.07;;;33.30;44.10;;;;;;5007021;28;20229;-66
2023/07/05 11:54:54;;;;;;;32.03;6.22;;;33.50;43.90;;;;;;5008179;28;20205;-67
2023/07/05 11:57:22;;;;;;;26.98;5.32;;;33.70;43.80;;;;;;5008742;28;20206;-66
2023/07/05 12:00:12;;;;;;;24.98;5.30;;;33.80;43.80;;;;;;5008471;28;20212;-68
2023/07/05 12:02:49;;;;;;;28.45;5.63;;;34.00;43.60;;;;;;5020081;28;20209;-67
2023/07/05 12:05:19;;;;;;;39.53;6.75;;;34.10;43.30;;;;;;5026579;28;20291;-67
2023/07/05 12:07:50;;;;;;;30.73;5.75;;;34.30;43.40;;;;;;5015068;28;20204;-66
2023/07/05 12:10:21;;;;;;;53.08;7.97;;;34.40;43.30;;;;;;5033143;28;20317;-66
2023/07/05 12:12:48;;;;;;;44.10;6.93;;;34.50;43.10;;;;;;5022747;28;20208;-66
2023/07/05 12:15:17;;;;;;;35.67;6.55;;;34.60;43.20;;;;;;5017741;28;21317;-65
2023/07/05 12:17:45;;;;;;;30.30;5.78;;;34.70;41.20;;;;;;5018388;28;20204;-64
2023/07/05 12:20:28;;;;;;;26.33;5.20;;;34.80;42.10;;;;;;5017052;28;20208;-64
2023/07/05 12:22:55;;;;;;;23.08;4.80;;;34.90;42.60;;;;;;5026877;28;20203;-66
2023/07/05 12:25:24;;;;;;;25.52;5.15;;;34.90;42.10;;;;;;5014160;28;20197;-65
2023/07/05 12:27:51;;;;;;;26.23;5.32;;;35.00;42.50;;;;;;5014533;28;20610;-65
2023/07/05 12:30:22;;;;;;;62.50;8.57;;;35.00;41.70;;;;;;5027362;28;20211;-64
2023/07/05 12:32:51;;;;;;;31.10;5.90;;;34.90;41.30;;;;;;5014285;28;20209;-68
2023/07/05 12:35:22;;;;;;;25.60;5.00;;;34.90;41.40;;;;;;5026825;28;20203;-64
2023/07/05 12:37:50;;;;;;;47.58;7.00;;;34.80;41.30;;;;;;5024023;28;20207;-64
2023/07/05 12:40:30;;;;;;;29.75;5.43;;;34.70;41.30;;;;;;5013063;28;20212;-64
2023/07/05 12:42:59;;;;;;;47.60;7.68;;;34.60;40.90;;;;;;5008943;28;20205;-64
2023/07/05 12:45:30;;;;;;;27.80;5.50;;;34.50;41.20;;;;;;5028618;28;20532;-64
2023/07/05 12:47:58;;;;;;;57.38;8.00;;;34.30;41.00;;;;;;5042185;28;20207;-65
2023/07/05 12:50:26;;;;;;;23.23;4.65;;;34.20;41.20;;;;;;5023962;28;20196;-65